createdAt,value
2019-03-20T00:01:28.332Z,68.00
2019-03-20T00:03:55.776Z,68.12
2019-03-20T00:06:23.269Z,68.15
2019-03-20T00:08:50.766Z,67.69
2019-03-20T00:11:18.186Z,67.98
2019-03-20T00:13:45.615Z,68.08
2019-03-20T00:16:13.098Z,68.01
2019-03-20T00:18:40.699Z,68.30
2019-03-20T00:21:08.179Z,68.06
2019-03-20T00:23:35.691Z,67.96
2019-03-20T00:26:03.430Z,67.89
2019-03-20T00:28:31.079Z,67.70
2019-03-20T00:30:58.575Z,67.33
2019-03-20T00:33:26.034Z,67.22
2019-03-20T00:35:53.530Z,67.27
2019-03-20T00:38:22.499Z,67.46
2019-03-20T00:40:49.995Z,67.20
2019-03-20T00:43:17.473Z,67.52
2019-03-20T00:45:44.967Z,67.89
2019-03-20T00:48:12.443Z,67.64
2019-03-20T00:50:39.888Z,67.71
2019-03-20T00:53:07.359Z,67.86
2019-03-20T00:55:34.803Z,67.77
2019-03-20T00:58:02.255Z,67.33
2019-03-20T01:00:29.686Z,67.36
2019-03-20T01:02:57.158Z,67.44
2019-03-20T01:05:24.636Z,67.41
2019-03-20T01:07:52.111Z,67.61
2019-03-20T01:10:19.562Z,67.70
2019-03-20T01:12:49.472Z,68.13
2019-03-20T01:15:17.110Z,68.42
2019-03-20T01:17:44.567Z,68.34
2019-03-20T01:20:15.703Z,68.26
2019-03-20T01:22:43.214Z,68.30
2019-03-20T01:25:10.645Z,68.10
2019-03-20T01:27:38.117Z,68.35
2019-03-20T01:30:24.008Z,68.87
2019-03-20T01:32:51.483Z,68.97
2019-03-20T01:35:23.783Z,69.42
2019-03-20T01:37:46.434Z,68.87
2019-03-20T01:40:15.797Z,69.07
2019-03-20T01:42:43.395Z,69.68
2019-03-20T01:45:10.896Z,69.40
2019-03-20T01:47:38.294Z,69.21
2019-03-20T01:50:05.711Z,69.32
2019-03-20T01:52:33.202Z,69.03
2019-03-20T01:55:00.626Z,69.10
2019-03-20T01:57:28.081Z,69.29
2019-03-20T01:59:55.528Z,69.29
2019-03-20T02:02:23.019Z,68.92
2019-03-20T02:04:50.443Z,68.90
2019-03-20T02:07:17.925Z,68.91
2019-03-20T02:09:45.358Z,69.63
2019-03-20T02:12:12.862Z,69.54
2019-03-20T02:14:40.480Z,69.67
2019-03-20T02:17:07.944Z,69.34
2019-03-20T02:19:35.385Z,69.69
2019-03-20T02:22:03.308Z,69.88
2019-03-20T02:24:30.759Z,69.58
2019-03-20T02:26:58.259Z,69.43
2019-03-20T02:29:25.703Z,69.54
2019-03-20T02:31:53.172Z,69.14
2019-03-20T02:34:20.642Z,69.40
2019-03-20T02:36:48.107Z,69.52
2019-03-20T02:39:15.564Z,69.42
2019-03-20T02:41:43.058Z,69.28
2019-03-20T02:44:10.527Z,69.16
2019-03-20T02:46:37.987Z,68.72
2019-03-20T02:49:05.448Z,68.86
2019-03-20T02:51:33.777Z,68.72
2019-03-20T02:54:01.258Z,68.70
2019-03-20T02:56:28.701Z,69.01
2019-03-20T02:58:56.271Z,69.02
2019-03-20T03:01:23.726Z,68.77
2019-03-20T03:03:51.157Z,68.67
2019-03-20T03:06:18.599Z,69.05
2019-03-20T03:08:46.046Z,68.58
2019-03-20T03:11:13.500Z,68.45
2019-03-20T03:13:40.951Z,68.29
2019-03-20T03:16:08.458Z,68.37
2019-03-20T03:18:35.897Z,68.03
2019-03-20T03:21:04.283Z,67.87
2019-03-20T03:23:31.736Z,67.67
2019-03-20T03:25:59.226Z,67.66
2019-03-20T03:28:26.680Z,67.48
2019-03-20T03:30:54.144Z,67.39
2019-03-20T03:33:21.616Z,67.55
2019-03-20T03:35:49.275Z,67.06
2019-03-20T03:38:16.784Z,67.33
2019-03-20T03:40:44.230Z,67.32
2019-03-20T03:43:11.698Z,67.47
2019-03-20T03:45:39.154Z,67.33
2019-03-20T03:48:06.616Z,67.15
2019-03-20T03:50:34.787Z,68.17
2019-03-20T03:53:02.253Z,67.90
2019-03-20T03:55:29.738Z,68.13
2019-03-20T03:57:57.261Z,68.48
2019-03-20T04:00:25.235Z,68.71
2019-03-20T04:02:52.720Z,68.86
2019-03-20T04:05:20.197Z,68.95
2019-03-20T04:07:47.651Z,68.97
2019-03-20T04:10:15.094Z,69.00
2019-03-20T04:12:42.554Z,69.46
2019-03-20T04:15:10.034Z,69.33
2019-03-20T04:17:37.521Z,69.67
2019-03-20T04:20:06.271Z,69.59
2019-03-20T04:22:33.794Z,69.39
2019-03-20T04:25:01.245Z,69.30
2019-03-20T04:27:28.728Z,69.44
2019-03-20T04:29:56.201Z,69.39
2019-03-20T04:32:23.652Z,69.81
2019-03-20T04:34:52.743Z,69.84
2019-03-20T04:37:20.286Z,69.81
2019-03-20T04:39:47.754Z,69.63
2019-03-20T04:42:15.217Z,69.29
2019-03-20T04:44:42.679Z,69.40
2019-03-20T04:47:10.143Z,69.55
2019-03-20T04:49:37.594Z,69.93
2019-03-20T04:52:05.894Z,69.85
2019-03-20T04:54:33.339Z,69.52
2019-03-20T04:57:00.834Z,69.23
2019-03-20T04:59:28.263Z,69.10
2019-03-20T05:01:55.717Z,69.35
2019-03-20T05:04:23.198Z,69.28
2019-03-20T05:06:58.793Z,68.97
2019-03-20T05:09:18.174Z,68.77
2019-03-20T05:11:45.628Z,68.65
2019-03-20T05:14:13.110Z,68.67
2019-03-20T05:16:40.578Z,68.61
2019-03-20T05:19:08.086Z,68.19
2019-03-20T05:21:36.555Z,68.12
2019-03-20T05:24:04.007Z,68.43
2019-03-20T05:26:31.474Z,68.54
2019-03-20T05:28:58.889Z,68.35
2019-03-20T05:31:26.366Z,67.85
2019-03-20T05:33:53.840Z,67.93
2019-03-20T05:36:21.338Z,67.88
2019-03-20T05:38:48.789Z,68.36
2019-03-20T05:41:16.320Z,68.59
2019-03-20T05:43:43.739Z,68.47
2019-03-20T05:46:11.165Z,68.52
2019-03-20T05:48:38.625Z,68.50
2019-03-20T05:51:06.993Z,68.62
2019-03-20T05:53:34.470Z,68.53
2019-03-20T05:56:01.935Z,68.61
2019-03-20T05:58:29.401Z,68.36
2019-03-20T06:00:56.910Z,68.36
2019-03-20T06:03:24.344Z,68.75
2019-03-20T06:05:51.809Z,68.72
2019-03-20T06:08:19.264Z,69.28
2019-03-20T06:10:46.778Z,68.92
2019-03-20T06:13:14.269Z,69.39
2019-03-20T06:15:41.727Z,69.57
2019-03-20T06:18:09.194Z,69.64
2019-03-20T06:20:37.466Z,69.54
2019-03-20T06:23:04.931Z,69.50
2019-03-20T06:25:32.385Z,69.15
2019-03-20T06:27:59.872Z,68.68
2019-03-20T06:30:27.334Z,68.64
2019-03-20T06:32:54.798Z,68.69
2019-03-20T06:35:23.179Z,68.69
2019-03-20T06:37:50.699Z,68.90
2019-03-20T06:40:18.174Z,69.43
2019-03-20T06:42:45.660Z,69.21
2019-03-20T06:45:15.722Z,69.67
2019-03-20T06:47:43.193Z,69.79
2019-03-20T06:50:13.422Z,69.02
2019-03-20T06:52:40.860Z,68.28
2019-03-20T06:55:08.332Z,68.74
2019-03-20T06:57:35.750Z,69.25
2019-03-20T07:03:32.560Z,68.11
2019-03-20T07:06:16.292Z,69.28
2019-03-20T07:08:44.343Z,69.20
2019-03-20T07:11:11.871Z,69.53
2019-03-20T07:13:39.418Z,70.28
2019-03-20T07:16:06.897Z,69.63
2019-03-20T07:18:34.384Z,69.56
2019-03-20T07:21:01.833Z,68.71
2019-03-20T07:23:29.314Z,68.87
2019-03-20T07:25:56.754Z,70.20
2019-03-20T07:28:24.237Z,69.85
2019-03-20T07:30:51.717Z,69.21
2019-03-20T07:33:19.168Z,69.28
2019-03-20T07:35:46.623Z,68.96
2019-03-20T07:38:14.069Z,69.31
2019-03-20T07:40:41.581Z,69.05
2019-03-20T07:43:09.478Z,68.53
2019-03-20T07:45:36.551Z,69.16
2019-03-20T07:48:04.010Z,68.75
2019-03-20T07:50:31.466Z,69.12
2019-03-20T07:52:58.939Z,68.60
2019-03-20T07:55:26.380Z,68.15
2019-03-20T07:57:53.838Z,68.43
2019-03-20T08:00:21.291Z,68.19
2019-03-20T08:02:48.741Z,67.29
2019-03-20T08:05:16.198Z,66.83
2019-03-20T08:07:43.671Z,67.25
2019-03-20T08:10:12.637Z,67.06
2019-03-20T08:12:40.078Z,67.16
2019-03-20T08:15:23.135Z,66.96
2019-03-20T08:17:50.595Z,67.07
2019-03-20T08:20:21.892Z,67.06
2019-03-20T08:22:49.365Z,66.75
2019-03-20T08:25:16.802Z,66.78
2019-03-20T08:27:44.262Z,66.63
2019-03-20T08:30:13.876Z,66.58
2019-03-20T08:32:40.896Z,66.78
2019-03-20T08:35:08.337Z,66.28
2019-03-20T08:37:35.812Z,65.78
2019-03-20T08:40:03.273Z,66.29
2019-03-20T08:42:30.746Z,65.96
2019-03-20T08:44:59.130Z,65.82
2019-03-20T08:47:26.574Z,66.22
2019-03-20T08:49:54.031Z,66.91
2019-03-20T08:52:21.515Z,66.24
2019-03-20T08:54:48.967Z,66.27
2019-03-20T08:57:16.393Z,66.36
2019-03-20T08:59:43.836Z,65.65
2019-03-20T09:02:11.274Z,65.92
2019-03-20T09:04:38.710Z,65.54
2019-03-20T09:07:06.150Z,66.48
2019-03-20T09:09:33.622Z,65.96
2019-03-20T09:12:01.053Z,67.27
2019-03-20T09:14:28.517Z,66.11
2019-03-20T09:16:55.976Z,66.54
2019-03-20T09:19:24.260Z,65.92
2019-03-20T09:21:51.822Z,66.04
2019-03-20T09:24:19.287Z,66.25
2019-03-20T09:26:46.769Z,66.47
2019-03-20T09:29:18.610Z,66.73
2019-03-20T09:31:43.659Z,65.65
2019-03-20T09:34:11.228Z,65.81
2019-03-20T09:36:43.205Z,65.96
2019-03-20T09:39:06.160Z,67.09
2019-03-20T09:41:33.611Z,66.76
2019-03-20T09:44:01.078Z,66.11
2019-03-20T09:46:28.523Z,65.97
2019-03-20T09:48:56.040Z,65.90
2019-03-20T09:51:23.518Z,66.36
2019-03-20T09:53:50.980Z,65.97
2019-03-20T09:56:18.437Z,66.53
2019-03-20T09:58:45.902Z,66.71
2019-03-20T10:01:13.331Z,66.64
2019-03-20T10:03:41.821Z,67.22
2019-03-20T10:06:09.251Z,67.12
2019-03-20T10:08:36.757Z,67.37
2019-03-20T10:11:04.218Z,67.52
2019-03-20T10:13:31.711Z,66.72
2019-03-20T10:15:59.202Z,66.89
2019-03-20T10:18:27.458Z,66.78
2019-03-20T10:20:54.907Z,67.05
2019-03-20T10:23:22.341Z,66.21
2019-03-20T10:25:49.825Z,65.67
2019-03-20T10:28:17.330Z,65.65
2019-03-20T10:30:44.805Z,65.52
2019-03-20T10:33:12.319Z,66.14
2019-03-20T10:35:49.643Z,66.34
2019-03-20T10:38:07.286Z,65.67
2019-03-20T10:40:35.852Z,65.98
2019-03-20T10:43:03.414Z,65.84
2019-03-20T10:45:30.843Z,66.54
2019-03-20T10:47:58.302Z,65.89
2019-03-20T10:50:26.677Z,66.01
2019-03-20T10:52:54.113Z,65.48
2019-03-20T10:55:21.587Z,65.53
2019-03-20T10:57:49.022Z,66.07
2019-03-20T11:00:21.840Z,65.68
2019-03-20T11:02:49.307Z,66.17
2019-03-20T11:05:16.758Z,65.46
2019-03-20T11:07:44.223Z,65.90
2019-03-20T11:10:16.148Z,66.04
2019-03-20T11:12:43.615Z,65.50
2019-03-20T11:15:11.998Z,66.04
2019-03-20T11:17:39.500Z,66.02
2019-03-20T11:20:06.988Z,65.96
2019-03-20T11:22:34.492Z,65.24
2019-03-20T11:25:01.954Z,65.86
2019-03-20T11:27:29.460Z,65.67
2019-03-20T11:29:56.942Z,65.40
2019-03-20T11:32:24.374Z,65.87
2019-03-20T11:34:51.845Z,65.03
2019-03-20T11:37:19.294Z,64.98
2019-03-20T11:39:46.774Z,64.68
2019-03-20T11:42:14.224Z,64.64
2019-03-20T11:44:41.696Z,64.19
2019-03-20T11:47:09.137Z,64.09
2019-03-20T11:49:36.619Z,64.33
2019-03-20T11:52:06.206Z,64.38
2019-03-20T11:54:31.637Z,64.23
2019-03-20T11:56:59.101Z,64.13
2019-03-20T11:59:26.600Z,64.96
2019-03-20T12:01:54.061Z,63.68
2019-03-20T12:04:21.525Z,64.23
2019-03-20T12:06:48.971Z,64.61
2019-03-20T12:09:16.438Z,63.55
2019-03-20T12:11:46.091Z,63.33
2019-03-20T12:14:11.415Z,63.14
2019-03-20T12:16:38.932Z,63.04
2019-03-20T12:19:06.367Z,63.71
2019-03-20T12:21:33.823Z,63.22
2019-03-20T12:24:01.273Z,63.19
2019-03-20T12:26:28.720Z,62.74
2019-03-20T12:28:56.199Z,62.31
2019-03-20T12:31:23.744Z,61.62
2019-03-20T12:33:51.228Z,61.29
2019-03-20T12:36:18.787Z,61.53
2019-03-20T12:38:46.219Z,61.79
2019-03-20T12:41:13.688Z,62.53
2019-03-20T12:43:41.163Z,62.41
2019-03-20T12:46:08.608Z,62.18
2019-03-20T12:48:36.211Z,62.04
2019-03-20T12:51:03.690Z,61.19
2019-03-20T12:53:31.147Z,62.03
2019-03-20T12:55:58.609Z,61.79
2019-03-20T12:58:26.075Z,61.53
2019-03-20T13:00:54.618Z,61.24
2019-03-20T13:03:20.986Z,61.24
2019-03-20T13:05:48.450Z,61.18
2019-03-20T13:08:15.937Z,61.01
2019-03-20T13:10:43.408Z,60.71
2019-03-20T13:13:10.898Z,61.92
2019-03-20T13:15:38.331Z,60.57
2019-03-20T13:18:05.791Z,61.67
2019-03-20T13:20:33.230Z,61.14
2019-03-20T13:23:11.482Z,60.94
2019-03-20T13:25:38.946Z,61.28
2019-03-20T13:28:06.423Z,61.46
2019-03-20T13:30:38.524Z,61.46
2019-03-20T13:33:05.992Z,60.97
2019-03-20T13:35:33.476Z,62.00
2019-03-20T13:38:00.976Z,61.62
2019-03-20T13:40:28.428Z,61.94
2019-03-20T13:42:55.887Z,61.52
2019-03-20T13:45:23.345Z,60.90
2019-03-20T13:47:51.739Z,61.42
2019-03-20T13:50:19.217Z,61.74
2019-03-20T13:52:46.688Z,61.21
2019-03-20T13:55:14.136Z,61.17
2019-03-20T13:57:41.753Z,61.33
2019-03-20T14:00:19.615Z,61.47
2019-03-20T14:02:47.071Z,61.46
2019-03-20T14:05:14.511Z,61.61
2019-03-20T14:07:41.996Z,61.40
2019-03-20T14:10:10.168Z,61.66
2019-03-20T14:12:37.614Z,61.98
2019-03-20T14:15:05.091Z,62.12
2019-03-20T14:17:32.557Z,61.98
2019-03-20T14:20:00.038Z,61.69
2019-03-20T14:22:27.498Z,61.91
2019-03-20T14:24:56.688Z,61.98
2019-03-20T14:27:24.178Z,62.66
2019-03-20T14:29:52.380Z,61.96
2019-03-20T14:32:19.858Z,62.07
2019-03-20T14:34:47.324Z,62.17
2019-03-20T14:37:14.763Z,61.64
2019-03-20T14:39:42.219Z,62.46
2019-03-20T14:42:09.647Z,62.22
2019-03-20T14:44:37.122Z,62.45
2019-03-20T14:47:04.564Z,62.13
2019-03-20T14:49:32.047Z,62.65
2019-03-20T14:51:59.512Z,62.08
2019-03-20T14:54:26.991Z,62.09
2019-03-20T14:56:54.444Z,62.82
2019-03-20T14:59:21.888Z,62.69
2019-03-20T15:01:49.381Z,62.49
2019-03-20T15:04:16.815Z,62.49
2019-03-20T15:06:44.300Z,62.16
2019-03-20T15:09:11.754Z,62.79
2019-03-20T15:11:41.645Z,62.76
2019-03-20T15:14:09.241Z,62.07
2019-03-20T15:16:36.717Z,62.21
2019-03-20T15:19:04.197Z,62.24
2019-03-20T15:21:31.653Z,62.47
2019-03-20T15:23:59.098Z,61.49
2019-03-20T15:26:26.570Z,61.58
2019-03-20T15:28:54.049Z,61.54
2019-03-20T15:31:21.518Z,61.58
2019-03-20T15:33:48.990Z,61.60
2019-03-20T15:36:16.444Z,61.96
2019-03-20T15:38:43.943Z,61.94
2019-03-20T15:41:11.402Z,61.27
2019-03-20T15:43:38.863Z,61.60
2019-03-20T15:46:06.289Z,61.54
2019-03-20T15:48:33.733Z,61.98
2019-03-20T15:51:01.190Z,61.81
2019-03-20T15:53:28.654Z,61.90
2019-03-20T15:55:56.119Z,62.30
2019-03-20T15:58:24.336Z,62.23
2019-03-20T16:00:51.791Z,62.30
2019-03-20T16:03:22.447Z,61.95
2019-03-20T16:05:49.879Z,62.51
2019-03-20T16:08:17.373Z,62.04
2019-03-20T16:10:44.832Z,62.29
2019-03-20T16:13:12.287Z,61.65
2019-03-20T16:15:39.758Z,62.01
2019-03-20T16:18:07.245Z,62.13
2019-03-20T16:20:34.724Z,61.33
2019-03-20T16:23:02.172Z,61.48
2019-03-20T16:25:29.677Z,61.28
2019-03-20T16:27:57.272Z,61.27
2019-03-20T16:30:25.893Z,60.83
2019-03-20T16:32:53.351Z,61.48
2019-03-20T16:35:20.877Z,61.13
2019-03-20T16:37:48.351Z,61.52
2019-03-20T16:40:15.795Z,61.41
2019-03-20T16:42:43.245Z,61.60
2019-03-20T16:45:20.297Z,61.36
2019-03-20T16:47:47.726Z,62.01
2019-03-20T16:50:15.904Z,61.41
2019-03-20T16:52:43.361Z,61.70
2019-03-20T16:55:10.841Z,61.39
2019-03-20T16:57:38.291Z,61.84
2019-03-20T17:00:29.912Z,61.68
2019-03-20T17:02:57.382Z,61.15
2019-03-20T17:05:25.762Z,60.86
2019-03-20T17:07:53.285Z,61.40
2019-03-20T17:10:24.096Z,61.47
2019-03-20T17:12:51.714Z,62.24
2019-03-20T17:15:19.922Z,61.95
2019-03-20T17:17:47.367Z,61.86
2019-03-20T17:20:14.856Z,61.86
2019-03-20T17:22:42.290Z,61.99
2019-03-20T17:25:09.773Z,63.29
2019-03-20T17:27:37.229Z,61.72
2019-03-20T17:30:04.713Z,62.43
2019-03-20T17:32:32.400Z,61.89
2019-03-20T17:34:59.922Z,63.23
2019-03-20T17:37:27.387Z,63.77
2019-03-20T17:39:54.855Z,63.29
2019-03-20T17:42:22.920Z,62.80
2019-03-20T17:44:50.396Z,62.33
2019-03-20T17:47:17.876Z,62.77
2019-03-20T17:49:45.326Z,62.77
2019-03-20T17:52:12.817Z,62.62
2019-03-20T17:54:40.266Z,63.36
2019-03-20T17:57:07.720Z,63.17
2019-03-20T17:59:35.194Z,63.84
2019-03-20T18:02:02.641Z,63.80
2019-03-20T18:04:30.091Z,64.34
2019-03-20T18:06:57.595Z,65.16
2019-03-20T18:09:25.237Z,65.29
2019-03-20T18:11:52.835Z,64.94
2019-03-20T18:14:20.317Z,64.43
2019-03-20T18:16:47.772Z,64.48
2019-03-20T18:19:15.244Z,64.65
2019-03-20T18:21:42.735Z,64.78
2019-03-20T18:24:10.189Z,64.74
2019-03-20T18:26:37.702Z,65.35
2019-03-20T18:29:05.107Z,65.58
2019-03-20T18:31:32.568Z,65.33
2019-03-20T18:34:00.015Z,65.76
2019-03-20T18:36:27.501Z,65.65
2019-03-20T18:38:55.521Z,65.91
2019-03-20T18:41:23.000Z,66.32
2019-03-20T18:43:50.476Z,66.00
2019-03-20T18:46:17.980Z,65.99
2019-03-20T18:48:45.419Z,65.98
2019-03-20T18:51:12.884Z,65.67
2019-03-20T18:53:40.322Z,66.07
2019-03-20T18:56:07.802Z,66.73
2019-03-20T18:58:35.257Z,66.22
2019-03-20T19:01:02.708Z,66.63
2019-03-20T19:03:31.011Z,66.67
2019-03-20T19:06:02.929Z,66.37
2019-03-20T19:08:30.410Z,66.06
2019-03-20T19:10:58.477Z,65.79
2019-03-20T19:13:28.118Z,65.76
2019-03-20T19:15:55.740Z,66.03
2019-03-20T19:18:23.284Z,66.41
2019-03-20T19:20:50.752Z,66.74
2019-03-20T19:23:18.224Z,66.15
2019-03-20T19:25:45.668Z,66.50
2019-03-20T19:28:13.144Z,66.63
2019-03-20T19:30:40.751Z,66.22
2019-03-20T19:33:08.588Z,66.37
2019-03-20T19:35:36.027Z,66.82
2019-03-20T19:38:03.475Z,66.78
2019-03-20T19:40:31.055Z,67.22
2019-03-20T19:42:58.573Z,67.37
2019-03-20T19:45:26.039Z,67.40
2019-03-20T19:47:53.504Z,67.48
2019-03-20T19:50:21.783Z,68.10
2019-03-20T19:52:49.363Z,68.21
2019-03-20T19:55:16.839Z,68.23
2019-03-20T19:57:44.275Z,68.74
2019-03-20T20:00:15.327Z,68.05
2019-03-20T20:02:42.778Z,68.30
2019-03-20T20:05:15.667Z,68.83
2019-03-20T20:07:37.720Z,69.26
2019-03-20T20:10:08.139Z,70.09
2019-03-20T20:12:35.614Z,69.47
2019-03-20T20:15:03.259Z,69.93
2019-03-20T20:17:30.900Z,69.50
2019-03-20T20:19:59.426Z,69.67
2019-03-20T20:22:27.746Z,69.75
2019-03-20T20:24:55.181Z,69.48
2019-03-20T20:27:22.647Z,69.44
2019-03-20T20:29:50.071Z,69.04
2019-03-20T20:32:17.497Z,69.47
2019-03-20T20:34:45.397Z,70.28
2019-03-20T20:37:12.866Z,70.57
2019-03-20T20:39:40.305Z,71.09
2019-03-20T20:42:07.772Z,71.29
2019-03-20T20:44:36.031Z,71.04
2019-03-20T20:47:03.496Z,70.60
2019-03-20T20:49:32.249Z,70.73
2019-03-20T20:51:58.427Z,71.47
2019-03-20T20:54:25.912Z,72.09
2019-03-20T20:56:53.380Z,71.74
2019-03-20T20:59:20.868Z,71.81
2019-03-20T21:01:48.304Z,71.42
2019-03-20T21:04:16.016Z,72.21
2019-03-20T21:06:43.473Z,72.12
2019-03-20T21:09:10.987Z,72.19
2019-03-20T21:11:38.414Z,72.63
2019-03-20T21:14:05.862Z,73.05
2019-03-20T21:16:33.342Z,73.42
2019-03-20T21:19:26.751Z,74.91
2019-03-20T21:22:10.820Z,74.84
2019-03-20T21:24:38.994Z,75.27
2019-03-20T21:27:27.008Z,75.58
2019-03-20T21:30:19.374Z,75.41
2019-03-20T21:32:49.711Z,75.42
2019-03-20T21:35:28.984Z,74.81
2019-03-20T21:38:04.199Z,74.39
2019-03-20T21:40:32.429Z,73.84
2019-03-20T21:43:11.614Z,74.53
2019-03-20T21:45:41.750Z,74.99
2019-03-20T21:48:09.287Z,75.12
2019-03-20T21:50:48.625Z,74.75
2019-03-20T21:53:18.031Z,74.54
2019-03-20T21:55:57.393Z,74.24
2019-03-20T21:58:24.847Z,74.16
2019-03-20T22:04:03.085Z,74.82
2019-03-20T22:06:37.815Z,74.41
2019-03-20T22:09:05.263Z,74.19
2019-03-20T22:11:53.330Z,74.00
2019-03-20T22:14:20.782Z,73.35
2019-03-20T22:17:10.640Z,73.79
2019-03-20T22:19:42.708Z,74.71
2019-03-20T22:22:16.721Z,74.86
2019-03-20T22:25:05.833Z,74.66
2019-03-20T22:27:38.916Z,75.06
2019-03-20T22:30:06.358Z,74.77
2019-03-20T22:32:40.646Z,75.40
2019-03-20T22:35:23.276Z,74.98
2019-03-20T22:37:50.763Z,75.16
2019-03-20T22:40:30.551Z,75.08
2019-03-20T22:43:11.301Z,74.89
2019-03-20T22:45:48.862Z,74.82
2019-03-20T22:48:35.999Z,74.70
2019-03-20T22:51:23.154Z,74.44
2019-03-20T22:54:02.262Z,74.86
2019-03-20T22:56:35.189Z,75.00
2019-03-20T22:59:02.668Z,74.91
2019-03-20T23:01:30.119Z,75.33
2019-03-20T23:04:00.399Z,75.54
2019-03-20T23:06:27.835Z,75.28
2019-03-20T23:08:55.644Z,75.15
2019-03-20T23:11:23.139Z,75.51
2019-03-20T23:13:50.669Z,75.42
2019-03-20T23:16:18.123Z,75.32
2019-03-20T23:18:45.589Z,75.48
2019-03-20T23:21:13.026Z,75.33
2019-03-20T23:23:40.471Z,76.17
2019-03-20T23:26:07.938Z,76.12
2019-03-20T23:28:35.457Z,76.01
2019-03-20T23:31:03.055Z,75.85
2019-03-20T23:33:31.414Z,75.62
2019-03-20T23:35:59.131Z,75.30
2019-03-20T23:38:28.575Z,75.02
2019-03-20T23:40:54.252Z,75.45
2019-03-20T23:43:21.682Z,74.81
2019-03-20T23:45:49.154Z,74.55
2019-03-20T23:48:23.005Z,75.02
2019-03-20T23:50:51.209Z,75.20
2019-03-20T23:53:18.645Z,75.10
2019-03-20T23:55:46.098Z,74.31
2019-03-20T23:58:13.548Z,73.87
